sensor_id;sensor_type;location;lat;lon;timestamp;P1;durP1;ratioP1;P2;durP2;ratioP2
45540;SDS011;31265;49.680;8.608;2023-06-22T00:00:37;9.02;;;3.05;;
45540;SDS011;31265;49.680;8.608;2023-06-22T00:03:06;4.95;;;2.58;;
45540;SDS011;31265;49.680;8.608;2023-06-22T00:05:35;4.57;;;2.30;;
45540;SDS011;31265;49.680;8.608;2023-06-22T00:08:04;5.43;;;2.47;;
45540;SDS011;31265;49.680;8.608;2023-06-22T00:10:32;5.43;;;2.70;;
45540;SDS011;31265;49.680;8.608;2023-06-22T00:13:01;8.45;;;3.10;;
45540;SDS011;31265;49.680;8.608;2023-06-22T00:15:30;4.95;;;3.08;;
45540;SDS011;31265;49.680;8.608;2023-06-22T00:17:58;6.18;;;3.47;;
45540;SDS011;31265;49.680;8.608;2023-06-22T00:20:27;7.10;;;3.22;;
45540;SDS011;31265;49.680;8.608;2023-06-22T00:22:59;5.35;;;3.25;;
45540;SDS011;31265;49.680;8.608;2023-06-22T00:25:28;5.28;;;3.17;;
45540;SDS011;31265;49.680;8.608;2023-06-22T00:27:56;8.02;;;3.35;;
45540;SDS011;31265;49.680;8.608;2023-06-22T00:30:24;7.13;;;3.90;;
45540;SDS011;31265;49.680;8.608;2023-06-22T00:32:56;5.78;;;3.45;;
45540;SDS011;31265;49.680;8.608;2023-06-22T00:35:25;5.93;;;3.20;;
45540;SDS011;31265;49.680;8.608;2023-06-22T00:37:55;6.13;;;3.42;;
45540;SDS011;31265;49.680;8.608;2023-06-22T00:40:29;6.82;;;3.42;;
45540;SDS011;31265;49.680;8.608;2023-06-22T00:42:58;5.43;;;2.92;;
45540;SDS011;31265;49.680;8.608;2023-06-22T00:45:27;6.72;;;3.13;;
45540;SDS011;31265;49.680;8.608;2023-06-22T00:47:55;6.28;;;3.42;;
45540;SDS011;31265;49.680;8.608;2023-06-22T00:50:25;7.80;;;3.65;;
45540;SDS011;31265;49.680;8.608;2023-06-22T00:53:01;5.50;;;3.28;;
45540;SDS011;31265;49.680;8.608;2023-06-22T00:55:36;7.30;;;3.22;;
45540;SDS011;31265;49.680;8.608;2023-06-22T00:58:05;8.40;;;3.20;;
45540;SDS011;31265;49.680;8.608;2023-06-22T01:00:38;6.95;;;3.28;;
45540;SDS011;31265;49.680;8.608;2023-06-22T01:03:06;9.18;;;3.72;;
45540;SDS011;31265;49.680;8.608;2023-06-22T01:05:37;6.68;;;3.42;;
45540;SDS011;31265;49.680;8.608;2023-06-22T01:08:13;4.53;;;2.88;;
45540;SDS011;31265;49.680;8.608;2023-06-22T01:10:51;6.88;;;3.10;;
45540;SDS011;31265;49.680;8.608;2023-06-22T01:13:27;5.65;;;3.15;;
45540;SDS011;31265;49.680;8.608;2023-06-22T01:16:00;5.07;;;3.47;;
45540;SDS011;31265;49.680;8.608;2023-06-22T01:18:33;7.05;;;3.63;;
45540;SDS011;31265;49.680;8.608;2023-06-22T01:21:04;6.78;;;3.55;;
45540;SDS011;31265;49.680;8.608;2023-06-22T01:23:39;6.75;;;3.38;;
45540;SDS011;31265;49.680;8.608;2023-06-22T01:26:25;7.38;;;4.22;;
45540;SDS011;31265;49.680;8.608;2023-06-22T01:29:04;7.85;;;3.95;;
45540;SDS011;31265;49.680;8.608;2023-06-22T01:31:36;6.40;;;3.80;;
45540;SDS011;31265;49.680;8.608;2023-06-22T01:34:05;7.10;;;3.65;;
45540;SDS011;31265;49.680;8.608;2023-06-22T01:36:35;6.93;;;3.47;;
45540;SDS011;31265;49.680;8.608;2023-06-22T01:39:04;6.75;;;3.60;;
45540;SDS011;31265;49.680;8.608;2023-06-22T01:41:34;6.15;;;2.95;;
45540;SDS011;31265;49.680;8.608;2023-06-22T01:44:06;6.57;;;3.75;;
45540;SDS011;31265;49.680;8.608;2023-06-22T01:46:36;6.80;;;3.92;;
45540;SDS011;31265;49.680;8.608;2023-06-22T01:49:06;6.63;;;3.83;;
45540;SDS011;31265;49.680;8.608;2023-06-22T01:51:36;7.78;;;4.22;;
45540;SDS011;31265;49.680;8.608;2023-06-22T01:54:05;7.38;;;4.18;;
45540;SDS011;31265;49.680;8.608;2023-06-22T01:56:36;6.50;;;3.72;;
45540;SDS011;31265;49.680;8.608;2023-06-22T01:59:07;6.07;;;3.78;;
45540;SDS011;31265;49.680;8.608;2023-06-22T02:01:43;4.97;;;3.38;;
45540;SDS011;31265;49.680;8.608;2023-06-22T02:04:20;6.03;;;3.65;;
45540;SDS011;31265;49.680;8.608;2023-06-22T02:06:54;5.90;;;3.35;;
45540;SDS011;31265;49.680;8.608;2023-06-22T02:09:24;7.18;;;3.83;;
45540;SDS011;31265;49.680;8.608;2023-06-22T02:11:56;5.07;;;3.45;;
45540;SDS011;31265;49.680;8.608;2023-06-22T02:14:28;9.57;;;4.55;;
45540;SDS011;31265;49.680;8.608;2023-06-22T02:16:57;7.38;;;4.32;;
45540;SDS011;31265;49.680;8.608;2023-06-22T02:19:26;9.33;;;4.73;;
45540;SDS011;31265;49.680;8.608;2023-06-22T02:22:00;7.60;;;4.75;;
45540;SDS011;31265;49.680;8.608;2023-06-22T02:24:28;7.78;;;3.95;;
45540;SDS011;31265;49.680;8.608;2023-06-22T02:26:59;6.90;;;3.97;;
45540;SDS011;31265;49.680;8.608;2023-06-22T02:29:29;8.27;;;4.35;;
45540;SDS011;31265;49.680;8.608;2023-06-22T02:34:25;7.30;;;4.68;;
45540;SDS011;31265;49.680;8.608;2023-06-22T02:36:53;8.23;;;4.40;;
45540;SDS011;31265;49.680;8.608;2023-06-22T02:39:22;7.70;;;4.35;;
45540;SDS011;31265;49.680;8.608;2023-06-22T02:41:52;7.00;;;3.97;;
45540;SDS011;31265;49.680;8.608;2023-06-22T02:44:22;7.93;;;3.80;;
45540;SDS011;31265;49.680;8.608;2023-06-22T02:46:51;6.28;;;3.58;;
45540;SDS011;31265;49.680;8.608;2023-06-22T02:49:21;7.75;;;4.20;;
45540;SDS011;31265;49.680;8.608;2023-06-22T02:51:49;6.05;;;3.80;;
45540;SDS011;31265;49.680;8.608;2023-06-22T02:54:20;5.80;;;3.22;;
45540;SDS011;31265;49.680;8.608;2023-06-22T02:56:51;5.93;;;3.50;;
45540;SDS011;31265;49.680;8.608;2023-06-22T02:59:21;7.00;;;3.83;;
45540;SDS011;31265;49.680;8.608;2023-06-22T03:01:58;7.68;;;4.55;;
45540;SDS011;31265;49.680;8.608;2023-06-22T03:04:31;5.78;;;3.20;;
45540;SDS011;31265;49.680;8.608;2023-06-22T03:07:00;10.45;;;3.60;;
45540;SDS011;31265;49.680;8.608;2023-06-22T03:09:30;8.27;;;3.47;;
45540;SDS011;31265;49.680;8.608;2023-06-22T03:11:59;6.13;;;3.38;;
45540;SDS011;31265;49.680;8.608;2023-06-22T03:14:37;5.75;;;3.08;;
45540;SDS011;31265;49.680;8.608;2023-06-22T03:17:07;8.43;;;3.83;;
45540;SDS011;31265;49.680;8.608;2023-06-22T03:19:36;8.23;;;3.55;;
45540;SDS011;31265;49.680;8.608;2023-06-22T03:22:04;5.88;;;3.13;;
45540;SDS011;31265;49.680;8.608;2023-06-22T03:24:33;6.32;;;3.63;;
45540;SDS011;31265;49.680;8.608;2023-06-22T03:27:04;6.55;;;3.17;;
45540;SDS011;31265;49.680;8.608;2023-06-22T03:29:34;5.85;;;3.10;;
45540;SDS011;31265;49.680;8.608;2023-06-22T03:32:02;4.85;;;3.03;;
45540;SDS011;31265;49.680;8.608;2023-06-22T03:34:33;7.65;;;3.65;;
45540;SDS011;31265;49.680;8.608;2023-06-22T03:37:03;8.25;;;3.80;;
45540;SDS011;31265;49.680;8.608;2023-06-22T03:39:32;5.40;;;2.70;;
45540;SDS011;31265;49.680;8.608;2023-06-22T03:42:00;6.05;;;2.80;;
45540;SDS011;31265;49.680;8.608;2023-06-22T03:44:28;5.93;;;3.65;;
45540;SDS011;31265;49.680;8.608;2023-06-22T03:46:57;5.07;;;2.90;;
45540;SDS011;31265;49.680;8.608;2023-06-22T03:49:26;5.53;;;2.75;;
45540;SDS011;31265;49.680;8.608;2023-06-22T03:51:55;6.18;;;3.35;;
45540;SDS011;31265;49.680;8.608;2023-06-22T03:56:54;4.57;;;2.42;;
45540;SDS011;31265;49.680;8.608;2023-06-22T03:59:22;4.15;;;2.70;;
45540;SDS011;31265;49.680;8.608;2023-06-22T04:01:51;4.55;;;2.80;;
45540;SDS011;31265;49.680;8.608;2023-06-22T04:04:22;5.03;;;2.65;;
45540;SDS011;31265;49.680;8.608;2023-06-22T04:06:50;6.07;;;2.90;;
45540;SDS011;31265;49.680;8.608;2023-06-22T04:09:20;5.00;;;3.17;;
45540;SDS011;31265;49.680;8.608;2023-06-22T04:11:49;6.25;;;3.80;;
45540;SDS011;31265;49.680;8.608;2023-06-22T04:14:17;6.35;;;3.65;;
45540;SDS011;31265;49.680;8.608;2023-06-22T04:16:47;8.18;;;4.20;;
45540;SDS011;31265;49.680;8.608;2023-06-22T04:19:17;7.00;;;3.63;;
45540;SDS011;31265;49.680;8.608;2023-06-22T04:21:46;7.68;;;3.65;;
45540;SDS011;31265;49.680;8.608;2023-06-22T04:24:15;7.60;;;4.20;;
45540;SDS011;31265;49.680;8.608;2023-06-22T04:26:45;6.28;;;3.70;;
45540;SDS011;31265;49.680;8.608;2023-06-22T04:29:13;6.97;;;4.35;;
45540;SDS011;31265;49.680;8.608;2023-06-22T04:31:42;8.65;;;3.72;;
45540;SDS011;31265;49.680;8.608;2023-06-22T04:34:10;7.25;;;4.57;;
45540;SDS011;31265;49.680;8.608;2023-06-22T04:36:39;6.32;;;3.90;;
45540;SDS011;31265;49.680;8.608;2023-06-22T04:39:09;7.70;;;4.13;;
45540;SDS011;31265;49.680;8.608;2023-06-22T04:41:38;7.40;;;4.20;;
45540;SDS011;31265;49.680;8.608;2023-06-22T04:44:12;8.70;;;4.10;;
45540;SDS011;31265;49.680;8.608;2023-06-22T04:46:51;6.10;;;3.55;;
45540;SDS011;31265;49.680;8.608;2023-06-22T04:49:20;5.57;;;4.03;;
45540;SDS011;31265;49.680;8.608;2023-06-22T04:51:49;5.30;;;3.33;;
45540;SDS011;31265;49.680;8.608;2023-06-22T04:54:18;6.25;;;3.70;;
45540;SDS011;31265;49.680;8.608;2023-06-22T04:56:46;7.15;;;3.67;;
45540;SDS011;31265;49.680;8.608;2023-06-22T04:59:24;8.55;;;4.18;;
45540;SDS011;31265;49.680;8.608;2023-06-22T05:01:56;7.85;;;4.07;;
45540;SDS011;31265;49.680;8.608;2023-06-22T05:04:25;7.90;;;4.03;;
45540;SDS011;31265;49.680;8.608;2023-06-22T05:06:55;6.05;;;3.40;;
45540;SDS011;31265;49.680;8.608;2023-06-22T05:09:23;5.90;;;3.35;;
45540;SDS011;31265;49.680;8.608;2023-06-22T05:11:52;7.93;;;4.03;;
45540;SDS011;31265;49.680;8.608;2023-06-22T05:14:20;6.22;;;3.47;;
45540;SDS011;31265;49.680;8.608;2023-06-22T05:16:49;5.18;;;3.45;;
45540;SDS011;31265;49.680;8.608;2023-06-22T05:19:18;7.82;;;4.40;;
45540;SDS011;31265;49.680;8.608;2023-06-22T05:21:47;6.80;;;4.18;;
45540;SDS011;31265;49.680;8.608;2023-06-22T05:24:15;10.68;;;3.95;;
45540;SDS011;31265;49.680;8.608;2023-06-22T05:26:43;9.43;;;3.35;;
45540;SDS011;31265;49.680;8.608;2023-06-22T05:29:11;7.68;;;4.07;;
45540;SDS011;31265;49.680;8.608;2023-06-22T05:31:40;11.18;;;4.00;;
45540;SDS011;31265;49.680;8.608;2023-06-22T05:34:09;7.80;;;4.15;;
45540;SDS011;31265;49.680;8.608;2023-06-22T05:39:10;6.35;;;3.60;;
45540;SDS011;31265;49.680;8.608;2023-06-22T05:41:40;6.82;;;4.03;;
45540;SDS011;31265;49.680;8.608;2023-06-22T05:44:10;6.53;;;3.70;;
45540;SDS011;31265;49.680;8.608;2023-06-22T05:46:40;5.55;;;3.58;;
45540;SDS011;31265;49.680;8.608;2023-06-22T05:49:12;7.70;;;3.72;;
45540;SDS011;31265;49.680;8.608;2023-06-22T05:51:41;7.57;;;3.40;;
45540;SDS011;31265;49.680;8.608;2023-06-22T05:54:10;6.00;;;3.22;;
45540;SDS011;31265;49.680;8.608;2023-06-22T05:56:40;5.13;;;3.03;;
45540;SDS011;31265;49.680;8.608;2023-06-22T05:59:08;6.13;;;3.70;;
45540;SDS011;31265;49.680;8.608;2023-06-22T06:04:07;5.53;;;2.80;;
45540;SDS011;31265;49.680;8.608;2023-06-22T06:06:37;5.28;;;3.40;;
45540;SDS011;31265;49.680;8.608;2023-06-22T06:09:05;5.22;;;3.53;;
45540;SDS011;31265;49.680;8.608;2023-06-22T06:11:34;5.78;;;3.30;;
45540;SDS011;31265;49.680;8.608;2023-06-22T06:14:02;6.28;;;2.90;;
45540;SDS011;31265;49.680;8.608;2023-06-22T06:16:30;7.38;;;3.15;;
45540;SDS011;31265;49.680;8.608;2023-06-22T06:18:59;5.90;;;3.08;;
45540;SDS011;31265;49.680;8.608;2023-06-22T06:21:28;5.60;;;3.33;;
45540;SDS011;31265;49.680;8.608;2023-06-22T06:23:58;7.90;;;3.28;;
45540;SDS011;31265;49.680;8.608;2023-06-22T06:26:26;7.18;;;3.17;;
45540;SDS011;31265;49.680;8.608;2023-06-22T06:28:56;5.32;;;2.92;;
45540;SDS011;31265;49.680;8.608;2023-06-22T06:31:25;5.20;;;3.00;;
45540;SDS011;31265;49.680;8.608;2023-06-22T06:33:55;9.05;;;3.20;;
45540;SDS011;31265;49.680;8.608;2023-06-22T06:36:23;5.25;;;2.78;;
45540;SDS011;31265;49.680;8.608;2023-06-22T06:38:52;6.00;;;2.93;;
45540;SDS011;31265;49.680;8.608;2023-06-22T06:41:21;5.60;;;2.75;;
45540;SDS011;31265;49.680;8.608;2023-06-22T06:43:50;4.72;;;2.70;;
45540;SDS011;31265;49.680;8.608;2023-06-22T06:46:18;4.38;;;2.55;;
45540;SDS011;31265;49.680;8.608;2023-06-22T06:48:47;3.93;;;2.13;;
45540;SDS011;31265;49.680;8.608;2023-06-22T06:51:15;7.33;;;3.43;;
45540;SDS011;31265;49.680;8.608;2023-06-22T06:53:43;5.40;;;2.88;;
45540;SDS011;31265;49.680;8.608;2023-06-22T06:56:12;5.30;;;2.70;;
45540;SDS011;31265;49.680;8.608;2023-06-22T06:58:41;5.60;;;2.60;;
45540;SDS011;31265;49.680;8.608;2023-06-22T07:01:12;6.15;;;3.25;;
45540;SDS011;31265;49.680;8.608;2023-06-22T07:03:41;6.33;;;2.43;;
45540;SDS011;31265;49.680;8.608;2023-06-22T07:06:09;5.70;;;3.08;;
45540;SDS011;31265;49.680;8.608;2023-06-22T07:08:37;5.25;;;2.83;;
45540;SDS011;31265;49.680;8.608;2023-06-22T07:11:06;4.38;;;2.50;;
45540;SDS011;31265;49.680;8.608;2023-06-22T07:13:35;4.70;;;2.72;;
45540;SDS011;31265;49.680;8.608;2023-06-22T07:16:04;4.43;;;2.55;;
45540;SDS011;31265;49.680;8.608;2023-06-22T07:18:33;8.25;;;2.88;;
45540;SDS011;31265;49.680;8.608;2023-06-22T07:21:01;5.45;;;3.63;;
45540;SDS011;31265;49.680;8.608;2023-06-22T07:25:58;4.18;;;2.65;;
45540;SDS011;31265;49.680;8.608;2023-06-22T07:28:28;4.72;;;2.97;;
45540;SDS011;31265;49.680;8.608;2023-06-22T07:30:57;7.40;;;3.42;;
45540;SDS011;31265;49.680;8.608;2023-06-22T07:33:27;6.23;;;3.27;;
45540;SDS011;31265;49.680;8.608;2023-06-22T07:35:55;4.53;;;2.47;;
45540;SDS011;31265;49.680;8.608;2023-06-22T07:38:24;5.00;;;3.20;;
45540;SDS011;31265;49.680;8.608;2023-06-22T07:40:52;4.53;;;2.83;;
45540;SDS011;31265;49.680;8.608;2023-06-22T07:43:20;4.45;;;2.80;;
45540;SDS011;31265;49.680;8.608;2023-06-22T07:45:50;4.63;;;2.80;;
45540;SDS011;31265;49.680;8.608;2023-06-22T07:48:20;4.35;;;2.75;;
45540;SDS011;31265;49.680;8.608;2023-06-22T07:50:50;4.40;;;2.88;;
45540;SDS011;31265;49.680;8.608;2023-06-22T07:53:20;4.40;;;2.75;;
45540;SDS011;31265;49.680;8.608;2023-06-22T07:55:48;4.72;;;2.70;;
45540;SDS011;31265;49.680;8.608;2023-06-22T07:58:16;4.47;;;2.63;;
45540;SDS011;31265;49.680;8.608;2023-06-22T08:03:15;4.05;;;2.63;;
45540;SDS011;31265;49.680;8.608;2023-06-22T08:05:44;4.97;;;2.80;;
45540;SDS011;31265;49.680;8.608;2023-06-22T08:08:13;6.03;;;3.15;;
45540;SDS011;31265;49.680;8.608;2023-06-22T08:10:42;4.75;;;2.65;;
45540;SDS011;31265;49.680;8.608;2023-06-22T08:13:10;4.57;;;2.93;;
45540;SDS011;31265;49.680;8.608;2023-06-22T08:15:38;4.68;;;2.38;;
45540;SDS011;31265;49.680;8.608;2023-06-22T08:18:07;4.87;;;2.80;;
45540;SDS011;31265;49.680;8.608;2023-06-22T08:20:35;6.78;;;2.63;;
45540;SDS011;31265;49.680;8.608;2023-06-22T08:23:03;4.43;;;2.85;;
45540;SDS011;31265;49.680;8.608;2023-06-22T08:25:34;5.10;;;2.90;;
45540;SDS011;31265;49.680;8.608;2023-06-22T08:28:03;4.93;;;3.15;;
45540;SDS011;31265;49.680;8.608;2023-06-22T08:30:32;4.20;;;2.67;;
45540;SDS011;31265;49.680;8.608;2023-06-22T08:33:00;5.03;;;2.35;;
45540;SDS011;31265;49.680;8.608;2023-06-22T08:37:58;6.00;;;2.95;;
45540;SDS011;31265;49.680;8.608;2023-06-22T08:40:26;5.72;;;2.80;;
45540;SDS011;31265;49.680;8.608;2023-06-22T08:42:57;6.82;;;2.78;;
45540;SDS011;31265;49.680;8.608;2023-06-22T08:45:26;3.88;;;3.08;;
45540;SDS011;31265;49.680;8.608;2023-06-22T08:47:56;5.50;;;2.85;;
45540;SDS011;31265;49.680;8.608;2023-06-22T08:50:25;4.93;;;2.83;;
45540;SDS011;31265;49.680;8.608;2023-06-22T08:52:54;6.55;;;2.70;;
45540;SDS011;31265;49.680;8.608;2023-06-22T08:55:24;4.30;;;2.35;;
45540;SDS011;31265;49.680;8.608;2023-06-22T08:57:53;6.85;;;3.10;;
45540;SDS011;31265;49.680;8.608;2023-06-22T09:00:23;4.67;;;2.40;;
45540;SDS011;31265;49.680;8.608;2023-06-22T09:02:51;4.85;;;2.60;;
45540;SDS011;31265;49.680;8.608;2023-06-22T09:05:20;5.45;;;2.63;;
45540;SDS011;31265;49.680;8.608;2023-06-22T09:07:48;5.70;;;3.00;;
45540;SDS011;31265;49.680;8.608;2023-06-22T09:10:16;3.70;;;2.10;;
45540;SDS011;31265;49.680;8.608;2023-06-22T09:12:45;4.15;;;2.47;;
45540;SDS011;31265;49.680;8.608;2023-06-22T09:15:14;4.53;;;2.78;;
45540;SDS011;31265;49.680;8.608;2023-06-22T09:17:46;5.10;;;3.05;;
45540;SDS011;31265;49.680;8.608;2023-06-22T09:20:14;4.03;;;2.47;;
45540;SDS011;31265;49.680;8.608;2023-06-22T09:22:43;12.63;;;3.13;;
45540;SDS011;31265;49.680;8.608;2023-06-22T09:25:11;4.47;;;2.65;;
45540;SDS011;31265;49.680;8.608;2023-06-22T09:27:40;7.63;;;2.90;;
45540;SDS011;31265;49.680;8.608;2023-06-22T09:30:08;7.32;;;2.67;;
45540;SDS011;31265;49.680;8.608;2023-06-22T09:32:37;4.03;;;2.25;;
45540;SDS011;31265;49.680;8.608;2023-06-22T09:35:07;5.05;;;2.40;;
45540;SDS011;31265;49.680;8.608;2023-06-22T09:37:36;4.25;;;2.47;;
45540;SDS011;31265;49.680;8.608;2023-06-22T09:40:05;4.43;;;2.50;;
45540;SDS011;31265;49.680;8.608;2023-06-22T09:42:38;7.00;;;2.60;;
45540;SDS011;31265;49.680;8.608;2023-06-22T09:45:06;4.07;;;2.47;;
45540;SDS011;31265;49.680;8.608;2023-06-22T09:47:35;4.30;;;2.50;;
45540;SDS011;31265;49.680;8.608;2023-06-22T09:50:04;5.30;;;3.00;;
45540;SDS011;31265;49.680;8.608;2023-06-22T09:52:35;5.28;;;2.72;;
45540;SDS011;31265;49.680;8.608;2023-06-22T09:55:06;4.47;;;2.33;;
45540;SDS011;31265;49.680;8.608;2023-06-22T09:57:37;7.55;;;2.50;;
45540;SDS011;31265;49.680;8.608;2023-06-22T10:00:19;6.55;;;3.10;;
45540;SDS011;31265;49.680;8.608;2023-06-22T10:02:48;4.43;;;2.45;;
45540;SDS011;31265;49.680;8.608;2023-06-22T10:07:47;6.60;;;2.67;;
45540;SDS011;31265;49.680;8.608;2023-06-22T10:10:15;5.28;;;3.15;;
45540;SDS011;31265;49.680;8.608;2023-06-22T10:12:45;4.05;;;2.20;;
45540;SDS011;31265;49.680;8.608;2023-06-22T10:15:14;5.15;;;2.70;;
45540;SDS011;31265;49.680;8.608;2023-06-22T10:17:43;4.47;;;2.17;;
45540;SDS011;31265;49.680;8.608;2023-06-22T10:20:12;4.88;;;2.40;;
45540;SDS011;31265;49.680;8.608;2023-06-22T10:25:11;5.22;;;2.28;;
45540;SDS011;31265;49.680;8.608;2023-06-22T10:27:40;4.40;;;2.30;;
45540;SDS011;31265;49.680;8.608;2023-06-22T10:30:09;4.50;;;2.45;;
45540;SDS011;31265;49.680;8.608;2023-06-22T10:32:40;3.50;;;2.20;;
45540;SDS011;31265;49.680;8.608;2023-06-22T10:35:09;5.68;;;2.42;;
45540;SDS011;31265;49.680;8.608;2023-06-22T10:37:40;5.45;;;2.38;;
45540;SDS011;31265;49.680;8.608;2023-06-22T10:40:11;3.95;;;2.33;;
45540;SDS011;31265;49.680;8.608;2023-06-22T10:42:42;3.92;;;2.00;;
45540;SDS011;31265;49.680;8.608;2023-06-22T10:45:10;8.18;;;2.25;;
45540;SDS011;31265;49.680;8.608;2023-06-22T10:47:39;4.43;;;2.25;;
45540;SDS011;31265;49.680;8.608;2023-06-22T10:50:09;3.80;;;2.25;;
45540;SDS011;31265;49.680;8.608;2023-06-22T10:52:38;4.07;;;1.92;;
45540;SDS011;31265;49.680;8.608;2023-06-22T10:55:08;4.78;;;1.80;;
45540;SDS011;31265;49.680;8.608;2023-06-22T10:57:37;3.85;;;2.05;;
45540;SDS011;31265;49.680;8.608;2023-06-22T11:00:09;3.60;;;1.95;;
45540;SDS011;31265;49.680;8.608;2023-06-22T11:02:38;3.20;;;1.73;;
45540;SDS011;31265;49.680;8.608;2023-06-22T11:05:07;4.65;;;2.08;;
45540;SDS011;31265;49.680;8.608;2023-06-22T11:07:36;7.47;;;2.33;;
45540;SDS011;31265;49.680;8.608;2023-06-22T11:10:05;6.00;;;2.53;;
45540;SDS011;31265;49.680;8.608;2023-06-22T11:12:35;4.25;;;2.10;;
45540;SDS011;31265;49.680;8.608;2023-06-22T11:15:04;4.97;;;1.77;;
45540;SDS011;31265;49.680;8.608;2023-06-22T11:17:33;6.35;;;2.33;;
45540;SDS011;31265;49.680;8.608;2023-06-22T11:20:02;3.85;;;1.73;;
45540;SDS011;31265;49.680;8.608;2023-06-22T11:22:37;8.40;;;2.28;;
45540;SDS011;31265;49.680;8.608;2023-06-22T11:25:06;4.07;;;1.88;;
45540;SDS011;31265;49.680;8.608;2023-06-22T11:27:36;7.55;;;2.60;;
45540;SDS011;31265;49.680;8.608;2023-06-22T11:30:05;3.63;;;1.92;;
45540;SDS011;31265;49.680;8.608;2023-06-22T11:32:34;5.82;;;2.67;;
45540;SDS011;31265;49.680;8.608;2023-06-22T11:35:03;3.97;;;1.90;;
45540;SDS011;31265;49.680;8.608;2023-06-22T11:40:00;6.28;;;2.75;;
45540;SDS011;31265;49.680;8.608;2023-06-22T11:42:33;3.85;;;1.95;;
45540;SDS011;31265;49.680;8.608;2023-06-22T11:45:04;3.42;;;2.05;;
45540;SDS011;31265;49.680;8.608;2023-06-22T11:47:34;3.05;;;1.80;;
45540;SDS011;31265;49.680;8.608;2023-06-22T11:50:03;7.72;;;1.75;;
45540;SDS011;31265;49.680;8.608;2023-06-22T11:52:33;3.35;;;1.65;;
45540;SDS011;31265;49.680;8.608;2023-06-22T11:55:03;8.13;;;2.17;;
45540;SDS011;31265;49.680;8.608;2023-06-22T11:57:32;3.60;;;2.22;;
45540;SDS011;31265;49.680;8.608;2023-06-22T12:00:04;5.82;;;2.60;;
45540;SDS011;31265;49.680;8.608;2023-06-22T12:02:43;6.72;;;2.17;;
45540;SDS011;31265;49.680;8.608;2023-06-22T12:05:12;4.30;;;2.25;;
45540;SDS011;31265;49.680;8.608;2023-06-22T12:07:40;6.38;;;2.60;;
45540;SDS011;31265;49.680;8.608;2023-06-22T12:10:09;8.57;;;2.33;;
45540;SDS011;31265;49.680;8.608;2023-06-22T12:12:37;8.48;;;2.10;;
45540;SDS011;31265;49.680;8.608;2023-06-22T12:15:08;5.00;;;2.10;;
45540;SDS011;31265;49.680;8.608;2023-06-22T12:17:37;5.45;;;2.20;;
45540;SDS011;31265;49.680;8.608;2023-06-22T12:20:06;4.85;;;2.05;;
45540;SDS011;31265;49.680;8.608;2023-06-22T12:22:35;3.22;;;1.52;;
45540;SDS011;31265;49.680;8.608;2023-06-22T12:25:05;6.03;;;2.40;;
45540;SDS011;31265;49.680;8.608;2023-06-22T12:27:33;3.63;;;1.65;;
45540;SDS011;31265;49.680;8.608;2023-06-22T12:30:02;5.47;;;1.95;;
45540;SDS011;31265;49.680;8.608;2023-06-22T12:32:32;4.10;;;2.47;;
45540;SDS011;31265;49.680;8.608;2023-06-22T12:35:01;7.53;;;2.47;;
45540;SDS011;31265;49.680;8.608;2023-06-22T12:37:29;4.07;;;2.35;;
45540;SDS011;31265;49.680;8.608;2023-06-22T12:39:58;8.02;;;2.80;;
45540;SDS011;31265;49.680;8.608;2023-06-22T12:42:26;5.70;;;1.85;;
45540;SDS011;31265;49.680;8.608;2023-06-22T12:44:55;3.88;;;1.55;;
45540;SDS011;31265;49.680;8.608;2023-06-22T12:47:23;11.40;;;3.20;;
45540;SDS011;31265;49.680;8.608;2023-06-22T12:49:52;7.10;;;2.20;;
45540;SDS011;31265;49.680;8.608;2023-06-22T12:52:21;4.40;;;2.50;;
45540;SDS011;31265;49.680;8.608;2023-06-22T12:54:49;3.13;;;1.70;;
45540;SDS011;31265;49.680;8.608;2023-06-22T12:57:21;7.40;;;1.73;;
45540;SDS011;31265;49.680;8.608;2023-06-22T12:59:50;3.63;;;2.05;;
45540;SDS011;31265;49.680;8.608;2023-06-22T13:02:18;5.10;;;1.98;;
45540;SDS011;31265;49.680;8.608;2023-06-22T13:04:47;4.15;;;2.60;;
45540;SDS011;31265;49.680;8.608;2023-06-22T13:07:16;3.78;;;2.03;;
45540;SDS011;31265;49.680;8.608;2023-06-22T13:09:49;3.97;;;1.98;;
45540;SDS011;31265;49.680;8.608;2023-06-22T13:12:19;3.80;;;1.77;;
45540;SDS011;31265;49.680;8.608;2023-06-22T13:14:48;4.88;;;1.75;;
45540;SDS011;31265;49.680;8.608;2023-06-22T13:17:17;4.72;;;2.22;;
45540;SDS011;31265;49.680;8.608;2023-06-22T13:19:45;6.25;;;2.10;;
45540;SDS011;31265;49.680;8.608;2023-06-22T13:22:27;4.90;;;2.25;;
45540;SDS011;31265;49.680;8.608;2023-06-22T13:24:57;8.90;;;2.28;;
45540;SDS011;31265;49.680;8.608;2023-06-22T13:27:27;4.70;;;1.70;;
45540;SDS011;31265;49.680;8.608;2023-06-22T13:29:55;4.35;;;1.95;;
45540;SDS011;31265;49.680;8.608;2023-06-22T13:32:23;4.75;;;2.22;;
45540;SDS011;31265;49.680;8.608;2023-06-22T13:34:52;3.97;;;1.80;;
45540;SDS011;31265;49.680;8.608;2023-06-22T13:37:21;4.85;;;1.80;;
45540;SDS011;31265;49.680;8.608;2023-06-22T13:39:50;6.10;;;2.85;;
45540;SDS011;31265;49.680;8.608;2023-06-22T13:42:19;5.22;;;2.30;;
45540;SDS011;31265;49.680;8.608;2023-06-22T13:44:47;5.45;;;1.63;;
45540;SDS011;31265;49.680;8.608;2023-06-22T13:47:15;3.85;;;2.00;;
45540;SDS011;31265;49.680;8.608;2023-06-22T13:49:44;5.25;;;1.75;;
45540;SDS011;31265;49.680;8.608;2023-06-22T13:52:12;5.40;;;1.80;;
45540;SDS011;31265;49.680;8.608;2023-06-22T13:54:40;4.68;;;1.98;;
45540;SDS011;31265;49.680;8.608;2023-06-22T13:57:10;5.97;;;2.00;;
45540;SDS011;31265;49.680;8.608;2023-06-22T13:59:38;4.78;;;1.88;;
45540;SDS011;31265;49.680;8.608;2023-06-22T14:02:06;2.72;;;1.75;;
45540;SDS011;31265;49.680;8.608;2023-06-22T14:04:34;9.32;;;2.00;;
45540;SDS011;31265;49.680;8.608;2023-06-22T14:07:03;5.38;;;2.05;;
45540;SDS011;31265;49.680;8.608;2023-06-22T14:12:02;3.17;;;1.83;;
45540;SDS011;31265;49.680;8.608;2023-06-22T14:14:33;4.55;;;1.85;;
45540;SDS011;31265;49.680;8.608;2023-06-22T14:17:01;3.95;;;2.15;;
45540;SDS011;31265;49.680;8.608;2023-06-22T14:19:29;7.43;;;2.58;;
45540;SDS011;31265;49.680;8.608;2023-06-22T14:21:58;5.63;;;1.83;;
45540;SDS011;31265;49.680;8.608;2023-06-22T14:24:26;4.13;;;2.03;;
45540;SDS011;31265;49.680;8.608;2023-06-22T14:26:57;3.97;;;2.05;;
45540;SDS011;31265;49.680;8.608;2023-06-22T14:31:55;4.38;;;2.17;;
45540;SDS011;31265;49.680;8.608;2023-06-22T14:34:23;4.55;;;1.98;;
45540;SDS011;31265;49.680;8.608;2023-06-22T14:36:52;7.30;;;2.28;;
45540;SDS011;31265;49.680;8.608;2023-06-22T14:39:20;5.73;;;1.93;;
45540;SDS011;31265;49.680;8.608;2023-06-22T14:41:48;4.63;;;2.15;;
45540;SDS011;31265;49.680;8.608;2023-06-22T14:44:17;5.30;;;1.98;;
45540;SDS011;31265;49.680;8.608;2023-06-22T14:46:45;8.10;;;2.17;;
45540;SDS011;31265;49.680;8.608;2023-06-22T14:49:14;6.43;;;1.97;;
45540;SDS011;31265;49.680;8.608;2023-06-22T14:51:43;7.32;;;2.35;;
45540;SDS011;31265;49.680;8.608;2023-06-22T14:54:11;8.85;;;2.65;;
45540;SDS011;31265;49.680;8.608;2023-06-22T14:56:40;4.78;;;2.22;;
45540;SDS011;31265;49.680;8.608;2023-06-22T14:59:09;4.85;;;2.10;;
45540;SDS011;31265;49.680;8.608;2023-06-22T15:01:38;8.27;;;3.72;;
45540;SDS011;31265;49.680;8.608;2023-06-22T15:04:08;7.57;;;2.22;;
45540;SDS011;31265;49.680;8.608;2023-06-22T15:06:37;4.43;;;1.87;;
45540;SDS011;31265;49.680;8.608;2023-06-22T15:09:06;5.72;;;1.85;;
45540;SDS011;31265;49.680;8.608;2023-06-22T15:11:34;7.27;;;2.27;;
45540;SDS011;31265;49.680;8.608;2023-06-22T15:14:02;8.93;;;2.13;;
45540;SDS011;31265;49.680;8.608;2023-06-22T15:16:31;4.75;;;1.88;;
45540;SDS011;31265;49.680;8.608;2023-06-22T15:18:59;6.47;;;1.97;;
45540;SDS011;31265;49.680;8.608;2023-06-22T15:21:27;5.30;;;2.38;;
45540;SDS011;31265;49.680;8.608;2023-06-22T15:23:57;6.50;;;2.15;;
45540;SDS011;31265;49.680;8.608;2023-06-22T15:26:26;6.65;;;2.50;;
45540;SDS011;31265;49.680;8.608;2023-06-22T15:28:54;6.78;;;2.33;;
45540;SDS011;31265;49.680;8.608;2023-06-22T15:31:22;8.93;;;2.70;;